Terminal Aerodrome Forecast
Issued by NWS

Home | Current Version | Previous Version | Text Only | Print | Product List | Glossary On
Versions: 1 2 3 4 5 6 7 8 9 10 11 12 13 14 15 16 17 18 19 20
000
FTUS43 KIND 080200 AAA
TAFLAF
TAF AMD
KLAF 080223Z 0802/0824 36007KT P6SM SCT040 BKN080
     FM080800 04008KT P6SM OVC025
     FM081600 07008KT P6SM BKN015 OVC040
      TEMPO 0816/0820 4SM -RA BR
     FM082000 11006KT 4SM -RA BR OVC008
      AMD LTD TO CLD VIS AND WIND TIL 081300=

USA.gov is the U.S. government's official web portal to all federal, state and local government web resources and services.